Time;durP1;ratioP1;P1;durP2;ratioP2;P2;SDS_P1;SDS_P2;PMS_P1;PMS_P2;Temp;Humidity;BMP_temperature;BMP_pressure;BME280_temperature;BME280_humidity;BME280_pressure;Samples;Min_cycle;Max_cycle;Signal;HPM_P1;HPM_P2
2023/05/25 00:00:25;;;;;;;2.40;2.10;;;;;;;13.82;100.00;97991.97;1708805;75;932610;-71
2023/05/25 00:02:56;;;;;;;2.10;1.75;;;;;;;13.85;100.00;98002.03;1678495;75;2772260;-74
2023/05/25 00:05:26;;;;;;;3.20;2.80;;;;;;;13.78;100.00;98012.69;1711996;75;675239;-75
2023/05/25 00:07:57;;;;;;;4.30;3.80;;;;;;;13.59;100.00;98004.06;1702114;75;793994;-74
2023/05/25 00:10:27;;;;;;;5.70;4.80;;;;;;;13.51;100.00;98006.47;1710489;75;832846;-72
2023/05/25 00:13:00;;;;;;;4.60;4.10;;;;;;;13.50;100.00;98012.50;1701497;75;841115;-73
2023/05/25 00:15:30;;;;;;;4.40;4.00;;;;;;;13.55;100.00;98011.78;1711462;75;673289;-73
2023/05/25 00:18:00;;;;;;;3.80;3.40;;;;;;;13.56;100.00;98019.53;1700687;75;921210;-73
2023/05/25 00:20:33;;;;;;;2.70;2.40;;;;;;;13.71;100.00;98015.88;1712531;75;675287;-73
2023/05/25 00:23:03;;;;;;;2.80;2.40;;;;;;;13.68;100.00;98009.38;1700456;75;882050;-73
2023/05/25 00:25:34;;;;;;;3.20;2.90;;;;;;;13.65;100.00;98004.84;1711609;75;667698;-73
2023/05/25 00:28:07;;;;;;;4.00;3.55;;;;;;;13.61;100.00;98009.81;1703666;75;740553;-73
2023/05/25 00:30:39;;;;;;;4.55;4.15;;;;;;;13.49;100.00;98005.47;1712437;75;670619;-73
2023/05/25 00:33:10;;;;;;;4.55;4.10;;;;;;;13.57;100.00;98006.53;1702616;75;743718;-74
2023/05/25 00:35:41;;;;;;;4.60;3.70;;;;;;;13.57;100.00;98007.28;1685517;75;2894474;-74
2023/05/25 00:38:16;;;;;;;3.45;3.05;;;;;;;13.67;100.00;98007.13;1702549;75;750969;-73
2023/05/25 00:40:47;;;;;;;4.05;3.20;;;;;;;13.59;100.00;98013.06;1699566;75;1702787;-74
2023/05/25 00:43:19;;;;;;;4.70;4.30;;;;;;;13.54;100.00;98008.28;1702352;75;758660;-73
2023/05/25 00:45:50;;;;;;;3.70;3.20;;;;;;;13.65;100.00;98007.59;1710633;75;797952;-73
2023/05/25 00:48:21;;;;;;;2.95;2.65;;;;;;;13.75;100.00;98008.94;1690329;75;1748166;-72
2023/05/25 00:50:53;;;;;;;2.15;1.65;;;;;;;13.76;100.00;98007.69;1711425;75;672579;-73
2023/05/25 00:53:23;;;;;;;1.80;1.60;;;;;;;13.78;100.00;98005.22;1699714;75;940728;-74
2023/05/25 00:56:02;;;;;;;2.30;2.10;;;;;;;13.73;100.00;98016.91;1708020;75;975475;-73
2023/05/25 00:58:37;;;;;;;2.50;2.20;;;;;;;13.72;100.00;98009.91;1700137;75;949776;-75
2023/05/25 01:01:11;;;;;;;2.00;1.80;;;;;;;13.74;100.00;98007.44;1700613;75;992936;-72
2023/05/25 01:03:44;;;;;;;2.05;1.60;;;;;;;13.75;100.00;98014.44;1711716;75;669595;-74
2023/05/25 01:06:18;;;;;;;3.10;2.80;;;;;;;13.68;100.00;98014.13;1702920;75;787933;-73
2023/05/25 01:08:59;;;;;;;3.65;3.15;;;;;;;13.54;100.00;98011.03;1684993;75;2975699;-72
2023/05/25 01:11:38;;;;;;;3.90;3.50;;;;;;;13.53;100.00;98009.50;1704262;75;672082;-72
2023/05/25 01:14:11;;;;;;;3.60;3.20;;;;;;;13.50;100.00;98010.47;1704102;75;675747;-72
2023/05/25 01:16:43;;;;;;;3.70;3.30;;;;;;;13.46;100.00;98017.44;1642832;75;6496526;-73
2023/05/25 01:19:13;;;;;;;3.40;3.10;;;;;;;13.47;100.00;98010.69;1704049;75;679517;-73
2023/05/25 01:21:52;;;;;;;3.70;3.20;;;;;;;13.45;100.00;98013.94;1711647;75;673100;-73
2023/05/25 01:24:31;;;;;;;3.40;2.70;;;;;;;13.39;100.00;98005.63;1704619;75;673207;-74
2023/05/25 01:27:06;;;;;;;4.60;2.70;;;;;;;13.43;100.00;98008.91;1710155;75;853830;-71
2023/05/25 01:29:37;;;;;;;2.60;2.40;;;;;;;13.51;100.00;98011.97;1703214;75;743331;-71
2023/05/25 01:32:08;;;;;;;2.00;1.80;;;;;;;13.57;100.00;98009.31;1711240;75;675592;-73
2023/05/25 01:34:40;;;;;;;2.40;2.20;;;;;;;13.51;100.00;98020.22;1700714;75;875094;-74
2023/05/25 01:37:16;;;;;;;2.30;2.10;;;;;;;13.52;100.00;98024.50;1687728;75;2753592;-75
2023/05/25 01:39:46;;;;;;;2.00;1.80;;;;;;;13.51;100.00;98014.72;1632310;75;6688397;-72
2023/05/25 01:42:16;;;;;;;2.10;1.90;;;;;;;13.48;100.00;98007.47;1699814;75;1815824;-73
2023/05/25 01:44:47;;;;;;;2.00;1.80;;;;;;;13.51;100.00;98013.97;1690194;75;1773952;-72
2023/05/25 01:47:31;;;;;;;2.10;1.90;;;;;;;13.51;100.00;98009.22;1618113;75;8567988;-72
2023/05/25 01:50:08;;;;;;;1.95;1.75;;;;;;;13.54;100.00;98015.75;1703038;75;754795;-74
2023/05/25 01:52:47;;;;;;;1.95;1.40;;;;;;;13.56;100.00;98005.03;1701567;75;792993;-73
2023/05/25 01:55:21;;;;;;;1.40;1.30;;;;;;;13.49;100.00;98006.22;1697348;75;1888560;-73
2023/05/25 01:57:56;;;;;;;1.60;1.50;;;;;;;13.49;100.00;98003.47;1701647;75;871807;-71
2023/05/25 02:00:30;;;;;;;1.75;1.55;;;;;;;13.40;100.00;98004.41;1672673;75;3976476;-73
2023/05/25 02:03:00;;;;;;;3.10;2.80;;;;;;;13.31;100.00;98012.81;1703540;75;674477;-73
2023/05/25 02:05:30;;;;;;;3.80;3.40;;;;;;;13.19;100.00;98000.91;1688048;75;2690766;-73
2023/05/25 02:08:04;;;;;;;3.00;2.70;;;;;;;13.32;100.00;98010.81;1703973;75;673974;-73
2023/05/25 02:10:34;;;;;;;2.50;2.30;;;;;;;13.31;100.00;98007.31;1710295;75;790376;-72
2023/05/25 02:13:04;;;;;;;2.20;2.00;;;;;;;13.34;100.00;98006.34;1688013;75;1875512;-74
2023/05/25 02:15:35;;;;;;;1.95;1.60;;;;;;;13.33;100.00;98007.59;1708218;75;989511;-74
2023/05/25 02:18:07;;;;;;;2.10;1.90;;;;;;;13.32;100.00;98005.31;1701054;75;859875;-73
2023/05/25 02:20:38;;;;;;;2.10;1.80;;;;;;;13.30;100.00;98008.56;1641324;75;6558074;-73
2023/05/25 02:23:12;;;;;;;1.60;1.50;;;;;;;13.24;100.00;98002.22;1700742;75;890123;-73
2023/05/25 02:25:42;;;;;;;6.15;1.90;;;;;;;13.15;100.00;97996.88;1686617;75;2777165;-72
2023/05/25 02:28:12;;;;;;;2.30;2.00;;;;;;;13.11;100.00;98007.34;1703321;75;735012;-74
2023/05/25 02:30:42;;;;;;;2.00;1.80;;;;;;;13.08;100.00;97998.03;1709199;75;904129;-72
2023/05/25 02:33:12;;;;;;;2.00;1.80;;;;;;;13.07;100.00;98006.78;1701172;75;786967;-74
2023/05/25 02:35:43;;;;;;;2.10;1.90;;;;;;;13.11;100.00;98013.59;1712022;75;670295;-73
2023/05/25 02:38:17;;;;;;;2.25;2.05;;;;;;;13.11;100.00;98005.34;1703327;75;743924;-72
2023/05/25 02:40:49;;;;;;;2.50;2.00;;;;;;;13.11;100.00;98013.59;1712030;75;672392;-71
2023/05/25 02:43:19;;;;;;;2.40;2.05;;;;;;;13.11;100.00;98012.84;1702030;75;761788;-73
2023/05/25 02:45:49;;;;;;;2.55;2.00;;;;;;;13.07;100.00;98015.03;1710520;75;800869;-72
2023/05/25 02:48:20;;;;;;;3.30;2.90;;;;;;;13.06;100.00;98013.50;1689004;75;1959424;-73
2023/05/25 02:50:50;;;;;;;4.70;2.60;;;;;;;13.03;100.00;98014.50;1712346;75;772066;-74
2023/05/25 02:53:23;;;;;;;3.15;2.85;;;;;;;12.98;100.00;98021.44;1704059;75;824870;-72
2023/05/25 02:55:53;;;;;;;2.50;2.30;;;;;;;13.00;100.00;98021.72;1713023;75;672810;-73
2023/05/25 02:58:24;;;;;;;2.25;2.00;;;;;;;13.00;100.00;98025.19;1702445;75;824500;-73
2023/05/25 03:00:54;;;;;;;2.90;1.70;;;;;;;12.98;100.00;98027.69;1712222;75;671670;-73
2023/05/25 03:03:24;;;;;;;5.15;1.80;;;;;;;12.95;100.00;98031.41;1688999;75;1861821;-75
2023/05/25 03:05:55;;;;;;;2.00;1.80;;;;;;;12.79;100.00;98034.69;1699372;75;1735643;-74
2023/05/25 03:08:28;;;;;;;2.95;1.40;;;;;;;12.78;100.00;98036.69;1702845;75;741189;-75
2023/05/25 03:10:59;;;;;;;1.40;1.30;;;;;;;12.73;100.00;98040.13;1709951;75;857531;-72
2023/05/25 03:13:29;;;;;;;1.60;1.50;;;;;;;12.72;100.00;98038.63;1675700;75;2969163;-75
2023/05/25 03:15:59;;;;;;;2.00;1.80;;;;;;;12.58;100.00;98040.22;1685593;75;2845774;-73
2023/05/25 03:18:29;;;;;;;2.30;2.10;;;;;;;12.43;100.00;98042.22;1688485;75;1927473;-72
2023/05/25 03:21:00;;;;;;;2.10;1.90;;;;;;;12.47;100.00;98044.78;1696846;75;1965793;-71
2023/05/25 03:23:32;;;;;;;2.00;1.80;;;;;;;12.46;100.00;98051.50;1702592;75;748393;-71
2023/05/25 03:26:03;;;;;;;1.60;1.50;;;;;;;12.46;100.00;98055.03;1710966;75;676786;-73
2023/05/25 03:28:33;;;;;;;1.60;1.50;;;;;;;12.51;100.00;98059.09;1703220;75;730230;-73
2023/05/25 03:31:03;;;;;;;2.70;1.00;;;;;;;12.45;100.00;98061.72;1688009;75;2676951;-76
2023/05/25 03:33:33;;;;;;;1.45;1.35;;;;;;;12.47;100.00;98066.75;1703162;75;736784;-74
2023/05/25 03:36:03;;;;;;;1.50;1.40;;;;;;;12.40;100.00;98064.41;1711814;75;675653;-75
2023/05/25 03:38:36;;;;;;;1.60;1.50;;;;;;;12.40;100.00;98062.41;1702334;75;760635;-74
2023/05/25 03:41:07;;;;;;;2.40;2.20;;;;;;;12.38;100.00;98069.63;1711618;75;674898;-71
2023/05/25 03:43:37;;;;;;;1.70;1.60;;;;;;;12.34;100.00;98076.06;1703062;75;736580;-74
2023/05/25 03:46:08;;;;;;;2.40;2.20;;;;;;;12.24;100.00;98080.19;1711729;75;671946;-71
2023/05/25 03:48:39;;;;;;;3.85;3.45;;;;;;;12.11;100.00;98085.94;1702539;75;744554;-71
2023/05/25 03:51:09;;;;;;;9.20;4.60;;;;;;;12.05;100.00;98085.13;1711788;75;675695;-73
2023/05/25 03:53:42;;;;;;;3.65;3.35;;;;;;;12.09;100.00;98090.41;1701742;75;797013;-73
2023/05/25 03:56:12;;;;;;;3.00;2.80;;;;;;;12.18;100.00;98084.81;1711698;75;674334;-72
2023/05/25 03:58:42;;;;;;;2.30;2.10;;;;;;;12.19;100.00;98083.56;1702003;75;800222;-72
2023/05/25 04:01:12;;;;;;;2.65;2.25;;;;;;;12.21;100.00;98092.09;1688162;75;2686013;-72
2023/05/25 04:03:42;;;;;;;2.45;2.25;;;;;;;12.12;100.00;98097.69;1701912;75;749692;-73
2023/05/25 04:06:13;;;;;;;2.35;2.15;;;;;;;12.19;100.00;98099.28;1710958;75;758527;-73
2023/05/25 04:08:46;;;;;;;2.55;2.35;;;;;;;12.12;100.00;98097.69;1703594;75;742882;-72
2023/05/25 04:11:17;;;;;;;1.70;1.60;;;;;;;12.29;100.00;98095.97;1712175;75;677315;-72
2023/05/25 04:13:47;;;;;;;3.30;3.00;;;;;;;12.38;100.00;98103.31;1702931;75;752633;-75
2023/05/25 04:16:17;;;;;;;3.10;2.40;;;;;;;12.48;100.00;98109.44;1699168;75;1732701;-74
2023/05/25 04:18:47;;;;;;;5.40;3.80;;;;;;;12.41;100.00;98107.09;1700473;75;926630;-72
2023/05/25 04:21:18;;;;;;;5.15;3.00;;;;;;;12.50;100.00;98109.72;1697675;75;1898292;-75
2023/05/25 04:23:51;;;;;;;4.35;3.95;;;;;;;12.60;100.00;98104.88;1703077;75;750600;-71
2023/05/25 04:26:21;;;;;;;5.70;3.80;;;;;;;12.56;100.00;98111.34;1710926;75;722507;-76
2023/05/25 04:28:53;;;;;;;8.35;6.05;;;;;;;12.50;100.00;98121.47;1703420;75;737083;-73
2023/05/25 04:31:25;;;;;;;5.90;5.30;;;;;;;12.61;100.00;98118.13;1697464;75;1913490;-75
2023/05/25 04:33:57;;;;;;;6.30;4.10;;;;;;;12.72;100.00;98118.31;1699712;75;950296;-72
2023/05/25 04:36:28;;;;;;;10.10;5.00;;;;;;;12.64;100.00;98108.19;1708204;75;987211;-71
2023/05/25 04:39:01;;;;;;;4.45;3.95;;;;;;;12.54;100.00;98113.03;1702903;75;745195;-73
2023/05/25 04:41:32;;;;;;;4.80;3.10;;;;;;;12.58;100.00;98111.63;1710418;75;809738;-72
2023/05/25 04:44:03;;;;;;;3.00;2.70;;;;;;;12.71;100.00;98116.03;1702285;75;733763;-71
2023/05/25 04:46:36;;;;;;;4.20;2.30;;;;;;;12.65;100.00;98120.66;1711091;75;672795;-72
2023/05/25 04:49:07;;;;;;;2.40;2.20;;;;;;;12.83;100.00;98122.44;1699432;75;935609;-71
2023/05/25 04:51:37;;;;;;;2.35;2.15;;;;;;;12.86;100.00;98129.69;1698675;75;1722919;-72
2023/05/25 04:54:10;;;;;;;1.60;1.50;;;;;;;12.91;100.00;98126.28;1689099;75;1775630;-72
2023/05/25 04:56:40;;;;;;;5.10;3.70;;;;;;;12.67;100.00;98126.44;1711110;75;671871;-77
2023/05/25 04:59:10;;;;;;;4.55;2.90;;;;;;;12.83;100.00;98125.94;1702570;75;731855;-73
2023/05/25 05:01:43;;;;;;;2.50;2.30;;;;;;;12.97;100.00;98127.13;1685225;75;2833507;-76
2023/05/25 05:04:15;;;;;;;2.10;1.90;;;;;;;13.06;100.00;98126.97;1701961;75;765942;-73
2023/05/25 05:06:45;;;;;;;2.30;1.90;;;;;;;13.11;100.00;98129.03;1698065;75;1782003;-72
2023/05/25 05:09:18;;;;;;;4.35;3.90;;;;;;;12.88;100.00;98128.00;1690161;75;1726264;-76
2023/05/25 05:11:48;;;;;;;6.60;3.40;;;;;;;12.90;100.00;98125.53;1711837;75;668703;-73
2023/05/25 05:14:18;;;;;;;5.70;5.10;;;;;;;12.83;100.00;98134.16;1700438;75;922043;-72
2023/05/25 05:16:48;;;;;;;5.90;4.35;;;;;;;12.93;100.00;98135.53;1697691;75;1899935;-73
2023/05/25 05:19:18;;;;;;;4.35;3.85;;;;;;;13.11;100.00;98131.78;1701715;75;769590;-77
2023/05/25 05:21:49;;;;;;;4.20;3.80;;;;;;;13.02;100.00;98134.66;1662919;75;4799706;-73
2023/05/25 05:24:22;;;;;;;3.20;2.90;;;;;;;13.20;100.00;98130.88;1675569;75;2981409;-71
2023/05/25 05:26:52;;;;;;;2.60;2.00;;;;;;;13.35;100.00;98128.84;1711858;75;696856;-73
2023/05/25 05:29:22;;;;;;;11.05;7.05;;;;;;;12.88;100.00;98135.47;1702310;75;751438;-73
2023/05/25 05:31:53;;;;;;;6.30;5.70;;;;;;;13.15;100.00;98129.56;1709817;75;821161;-74
2023/05/25 05:34:23;;;;;;;5.85;5.25;;;;;;;13.26;100.00;98128.22;1677492;75;2791695;-72
2023/05/25 05:36:53;;;;;;;8.75;7.15;;;;;;;13.21;100.00;98124.91;1711895;75;678551;-71
2023/05/25 05:39:26;;;;;;;6.40;5.80;;;;;;;13.33;100.00;98131.31;1702286;75;763689;-74
2023/05/25 05:41:57;;;;;;;8.50;7.45;;;;;;;12.83;100.00;98133.41;1711424;75;675714;-72
2023/05/25 05:44:27;;;;;;;7.70;6.90;;;;;;;13.14;100.00;98133.56;1701554;75;753493;-75
2023/05/25 05:46:59;;;;;;;6.70;6.00;;;;;;;13.38;100.00;98140.88;1711601;75;675770;-72
2023/05/25 05:49:29;;;;;;;4.30;3.80;;;;;;;13.64;100.00;98140.91;1702472;75;752824;-72
2023/05/25 05:51:59;;;;;;;3.90;3.40;;;;;;;13.72;100.00;98141.97;1711706;75;672623;-71
2023/05/25 05:54:32;;;;;;;4.75;4.25;;;;;;;13.87;100.00;98143.88;1701788;75;743720;-73
2023/05/25 05:57:03;;;;;;;5.50;5.00;;;;;;;13.95;100.00;98148.47;1710706;75;672492;-75
2023/05/25 05:59:33;;;;;;;3.10;2.80;;;;;;;14.22;100.00;98149.94;1702423;75;740942;-71
2023/05/25 06:02:03;;;;;;;4.40;4.00;;;;;;;14.11;100.00;98146.34;1711760;75;673228;-75
2023/05/25 06:04:33;;;;;;;2.70;2.50;;;;;;;14.33;100.00;98145.75;1702938;75;756811;-75
2023/05/25 06:07:03;;;;;;;2.25;2.05;;;;;;;14.47;100.00;98159.38;1711476;75;676503;-73
2023/05/25 06:09:36;;;;;;;2.55;2.35;;;;;;;14.54;100.00;98144.44;1702553;75;750348;-75
2023/05/25 06:12:07;;;;;;;4.20;2.00;;;;;;;14.70;100.00;98154.06;1710895;75;679482;-72
2023/05/25 06:14:37;;;;;;;2.60;2.40;;;;;;;14.66;100.00;98159.81;1687213;75;1928452;-72
2023/05/25 06:17:07;;;;;;;2.95;2.50;;;;;;;14.85;100.00;98151.16;1710791;75;670008;-75
2023/05/25 06:19:38;;;;;;;3.05;2.75;;;;;;;15.00;100.00;98151.72;1698975;75;742944;-74
2023/05/25 06:22:08;;;;;;;2.70;2.50;;;;;;;15.10;100.00;98157.78;1710851;75;682230;-72
2023/05/25 06:24:41;;;;;;;2.95;2.65;;;;;;;15.06;100.00;98157.28;1701709;75;730250;-72
2023/05/25 06:27:12;;;;;;;3.30;3.00;;;;;;;15.25;100.00;98152.84;1710723;75;672968;-73
2023/05/25 06:29:42;;;;;;;4.50;4.10;;;;;;;15.23;100.00;98157.38;1701621;75;765088;-72
2023/05/25 06:32:13;;;;;;;4.90;4.40;;;;;;;15.16;100.00;98157.84;1710793;75;677804;-73
2023/05/25 06:34:43;;;;;;;3.50;3.20;;;;;;;15.28;100.00;98164.91;1701902;75;744862;-74
2023/05/25 06:37:13;;;;;;;5.95;5.35;;;;;;;15.16;100.00;98166.09;1711236;75;674635;-75
2023/05/25 06:39:46;;;;;;;5.60;5.10;;;;;;;15.39;100.00;98164.94;1702571;75;740369;-74
2023/05/25 06:42:16;;;;;;;6.20;5.60;;;;;;;15.33;100.00;98172.44;1711260;75;671260;-71
2023/05/25 06:44:46;;;;;;;6.25;5.65;;;;;;;15.49;100.00;98160.72;1701901;75;758504;-74
2023/05/25 06:47:17;;;;;;;4.35;3.95;;;;;;;15.68;100.00;98172.06;1710433;75;691976;-73
2023/05/25 06:49:47;;;;;;;5.60;5.00;;;;;;;15.63;100.00;98172.03;1701249;75;741277;-75
2023/05/25 06:52:17;;;;;;;5.05;4.55;;;;;;;15.60;100.00;98173.78;1710839;75;677055;-73
2023/05/25 06:54:50;;;;;;;6.10;5.20;;;;;;;15.57;100.00;98172.03;1701198;75;746808;-73
2023/05/25 06:57:20;;;;;;;5.50;5.00;;;;;;;15.51;100.00;98166.50;1710887;75;674504;-72
2023/05/25 06:59:50;;;;;;;5.60;5.05;;;;;;;15.58;100.00;98164.50;1690021;75;1677679;-74
2023/05/25 07:02:22;;;;;;;5.20;4.70;;;;;;;15.62;100.00;98170.53;1710892;75;674183;-75
2023/05/25 07:04:52;;;;;;;6.30;5.70;;;;;;;15.46;100.00;98167.22;1702278;75;761623;-73
2023/05/25 07:07:23;;;;;;;6.85;5.90;;;;;;;15.33;100.00;98173.19;1711178;75;681811;-77
2023/05/25 07:09:55;;;;;;;4.95;4.45;;;;;;;15.54;100.00;98173.03;1701813;75;742583;-72
2023/05/25 07:12:26;;;;;;;6.50;5.80;;;;;;;15.58;100.00;98179.03;1712288;75;676951;-72
2023/05/25 07:14:56;;;;;;;5.80;5.20;;;;;;;15.76;100.00;98169.59;1703218;75;756997;-73
2023/05/25 07:17:27;;;;;;;4.10;3.70;;;;;;;15.98;100.00;98171.66;1713398;75;672736;-73
2023/05/25 07:19:57;;;;;;;5.75;4.90;;;;;;;16.01;100.00;98172.66;1703779;75;733172;-75
2023/05/25 07:22:27;;;;;;;4.55;4.00;;;;;;;16.15;100.00;98168.91;1711359;75;670633;-73
2023/05/25 07:25:00;;;;;;;5.75;5.15;;;;;;;16.15;100.00;98166.88;1700683;75;743062;-73
2023/05/25 07:27:34;;;;;;;7.40;6.10;;;;;;;15.87;100.00;98172.38;1710624;75;673108;-76
2023/05/25 07:30:05;;;;;;;6.80;5.65;;;;;;;16.14;100.00;98170.16;1701946;75;764955;-75
2023/05/25 07:32:37;;;;;;;9.00;8.00;;;;;;;16.05;100.00;98176.69;1711090;75;670221;-73
2023/05/25 07:35:08;;;;;;;7.00;6.30;;;;;;;15.97;100.00;98179.19;1699260;75;954548;-74
2023/05/25 07:37:38;;;;;;;6.00;5.40;;;;;;;15.96;100.00;98182.44;1707873;75;992590;-75
2023/05/25 07:40:13;;;;;;;5.10;4.60;;;;;;;16.20;100.00;98176.44;1671927;75;3234831;-75
2023/05/25 07:42:43;;;;;;;8.10;5.70;;;;;;;16.22;100.00;98175.94;1711223;75;771584;-74
2023/05/25 07:45:15;;;;;;;6.30;5.70;;;;;;;16.45;100.00;98166.41;1702419;75;753471;-74
2023/05/25 07:47:45;;;;;;;7.40;6.60;;;;;;;16.45;100.00;98171.94;1711194;75;695676;-72
2023/05/25 07:50:16;;;;;;;8.20;6.60;;;;;;;16.49;100.00;98177.19;1699531;75;967720;-77
2023/05/25 07:52:46;;;;;;;5.00;4.10;;;;;;;16.72;100.00;98175.91;1707933;75;980449;-72
2023/05/25 07:55:20;;;;;;;5.90;5.30;;;;;;;16.51;100.00;98172.66;1702897;75;734487;-76
2023/05/25 07:57:50;;;;;;;4.60;4.00;;;;;;;16.96;100.00;98172.63;1712170;75;673475;-75
2023/05/25 08:00:22;;;;;;;5.15;4.30;;;;;;;17.33;100.00;98177.03;1689719;75;1801332;-77
2023/05/25 08:02:53;;;;;;;5.30;4.70;;;;;;;17.38;100.00;98181.03;1709096;75;901275;-74
2023/05/25 08:05:23;;;;;;;6.75;4.60;;;;;;;17.41;100.00;98175.25;1700187;75;827873;-74
2023/05/25 08:07:53;;;;;;;4.75;4.30;;;;;;;17.58;100.00;98168.88;1710438;75;683412;-76
2023/05/25 08:10:30;;;;;;;5.10;4.10;;;;;;;17.66;100.00;98175.38;1687753;75;1954607;-74
2023/05/25 08:13:01;;;;;;;5.25;4.60;;;;;;;17.85;100.00;98165.22;1702461;75;758749;-72
2023/05/25 08:15:31;;;;;;;4.80;3.90;;;;;;;17.82;100.00;98171.03;1710443;75;679237;-75
2023/05/25 08:18:03;;;;;;;6.20;4.60;;;;;;;17.76;100.00;98173.81;1701760;75;709054;-73
2023/05/25 08:20:33;;;;;;;6.85;5.20;;;;;;;17.61;100.00;98171.38;1705894;75;904111;-75
2023/05/25 08:23:03;;;;;;;6.10;4.70;;;;;;;17.72;100.00;98176.09;1699562;75;768008;-76
2023/05/25 08:25:36;;;;;;;6.90;4.60;;;;;;;17.67;100.00;98180.41;1696443;75;1762027;-73
2023/05/25 08:28:06;;;;;;;4.55;3.80;;;;;;;17.82;100.00;98177.34;1701368;75;675044;-74
2023/05/25 08:30:37;;;;;;;7.80;5.25;;;;;;;17.88;100.00;98175.28;1708247;75;794182;-73
2023/05/25 08:33:07;;;;;;;7.10;5.80;;;;;;;18.03;100.00;98174.94;1702740;75;676321;-74
2023/05/25 08:35:39;;;;;;;6.90;4.60;;;;;;;18.04;100.00;98179.22;1709807;75;679450;-77
2023/05/25 08:38:09;;;;;;;5.50;4.10;;;;;;;18.21;100.00;98176.31;1665581;75;3788078;-75
2023/05/25 08:40:45;;;;;;;5.30;4.20;;;;;;;18.21;100.00;98179.09;1696379;75;1991491;-76
2023/05/25 08:43:16;;;;;;;4.65;3.60;;;;;;;18.44;100.00;98170.59;1700866;75;962427;-73
2023/05/25 08:45:46;;;;;;;4.35;3.85;;;;;;;18.68;100.00;98170.63;1686036;75;2844793;-76
2023/05/25 08:48:21;;;;;;;4.50;4.00;;;;;;;18.67;100.00;98171.91;1701210;75;908975;-74
2023/05/25 08:50:53;;;;;;;6.90;4.05;;;;;;;18.66;100.00;98167.63;1638990;75;6774557;-74
2023/05/25 08:53:25;;;;;;;4.20;3.80;;;;;;;18.77;100.00;98177.16;1703519;75;678025;-74
2023/05/25 08:56:04;;;;;;;4.90;3.70;;;;;;;18.99;100.00;98173.38;1711488;75;672485;-72
2023/05/25 08:58:41;;;;;;;6.10;3.60;;;;;;;19.23;100.00;98172.63;1654140;75;4806288;-74
2023/05/25 09:01:13;;;;;;;4.80;3.75;;;;;;;19.14;100.00;98170.94;1665377;75;3919317;-74
2023/05/25 09:03:45;;;;;;;5.35;4.25;;;;;;;19.57;100.00;98182.03;1711879;75;675271;-73
2023/05/25 09:06:16;;;;;;;4.90;4.00;;;;;;;19.49;100.00;98175.56;1689433;75;1884005;-76
2023/05/25 09:08:47;;;;;;;5.40;3.60;;;;;;;19.62;100.00;98172.13;1711526;75;671189;-77
2023/05/25 09:11:21;;;;;;;4.20;3.55;;;;;;;19.93;100.00;98167.94;1703693;75;672457;-76
2023/05/25 09:13:52;;;;;;;6.00;4.50;;;;;;;19.06;100.00;98179.09;1711145;75;678547;-78
2023/05/25 09:16:23;;;;;;;5.30;3.60;;;;;;;20.06;100.00;98172.81;1701591;75;855480;-74
2023/05/25 09:18:53;;;;;;;3.90;3.20;;;;;;;20.39;95.23;98173.53;1697903;75;1796920;-76
2023/05/25 09:21:23;;;;;;;3.05;2.75;;;;;;;20.51;86.29;98168.56;1691556;75;1704568;-75
2023/05/25 09:23:54;;;;;;;4.55;3.20;;;;;;;20.34;88.17;98171.63;1699007;75;1734519;-73
2023/05/25 09:26:28;;;;;;;3.50;2.75;;;;;;;20.63;81.99;98169.88;1703415;75;676321;-75
2023/05/25 09:28:58;;;;;;;5.50;2.80;;;;;;;20.54;83.17;98164.69;1711404;75;680150;-74
2023/05/25 09:31:28;;;;;;;3.30;2.60;;;;;;;20.46;82.25;98172.94;1702938;75;675232;-72
2023/05/25 09:34:00;;;;;;;6.20;3.30;;;;;;;20.80;82.98;98178.69;1711385;75;675168;-74
2023/05/25 09:36:31;;;;;;;4.20;3.80;;;;;;;20.64;83.60;98174.94;1703372;75;683060;-73
2023/05/25 09:39:01;;;;;;;5.00;3.70;;;;;;;20.57;79.19;98180.38;1711546;75;674286;-73
2023/05/25 09:41:34;;;;;;;6.70;3.80;;;;;;;21.12;75.84;98165.97;1690413;75;1757011;-74
2023/05/25 09:44:06;;;;;;;3.90;3.20;;;;;;;21.11;74.51;98179.13;1708902;75;872135;-74
2023/05/25 09:46:37;;;;;;;4.30;2.70;;;;;;;21.30;74.84;98167.88;1699225;75;995729;-78
2023/05/25 09:49:10;;;;;;;4.70;3.55;;;;;;;20.09;75.55;98171.75;1696762;75;1945999;-75
2023/05/25 09:51:40;;;;;;;3.05;2.40;;;;;;;20.80;76.14;98172.38;1677282;75;2831261;-78
2023/05/25 09:54:13;;;;;;;3.60;2.20;;;;;;;21.49;75.84;98181.72;1709258;75;842674;-75
2023/05/25 09:56:47;;;;;;;7.35;3.20;;;;;;;22.01;73.94;98173.75;1701173;75;821785;-74
2023/05/25 09:59:17;;;;;;;2.70;2.20;;;;;;;22.66;69.72;98166.38;1709522;75;855098;-76
2023/05/25 10:01:52;;;;;;;2.60;2.40;;;;;;;22.29;68.55;98170.31;1699415;75;903578;-77
2023/05/25 10:04:23;;;;;;;2.70;1.90;;;;;;;22.32;72.43;98172.03;1708217;75;936840;-74
2023/05/25 10:06:55;;;;;;;3.20;2.40;;;;;;;22.41;73.54;98168.75;1699761;75;923331;-75
2023/05/25 10:09:29;;;;;;;2.30;2.10;;;;;;;22.84;71.33;98169.47;1710997;75;673796;-74
2023/05/25 10:12:04;;;;;;;3.50;2.60;;;;;;;22.21;66.20;98170.25;1675046;75;2948042;-74
2023/05/25 10:14:37;;;;;;;4.60;3.20;;;;;;;21.87;70.78;98165.44;1709566;75;751594;-75
2023/05/25 10:17:12;;;;;;;3.00;2.20;;;;;;;22.36;68.05;98168.91;1699508;75;956876;-74
2023/05/25 10:19:52;;;;;;;4.95;2.10;;;;;;;22.73;68.72;98162.16;1696720;75;1913809;-75
2023/05/25 10:22:28;;;;;;;4.40;2.70;;;;;;;22.80;63.54;98161.44;1688449;75;1874614;-75
2023/05/25 10:25:06;;;;;;;2.50;2.30;;;;;;;22.10;64.10;98170.50;1703449;75;678333;-72
2023/05/25 10:27:46;;;;;;;3.50;2.60;;;;;;;22.69;63.76;98164.53;1698025;75;1813612;-73
2023/05/25 10:30:17;;;;;;;4.30;2.70;;;;;;;22.82;64.98;98155.31;1702006;75;796839;-74
2023/05/25 10:32:49;;;;;;;3.25;2.40;;;;;;;22.20;67.33;98165.19;1712542;75;677937;-75
2023/05/25 10:35:19;;;;;;;2.50;2.20;;;;;;;22.90;66.96;98154.06;1704079;75;733874;-76
2023/05/25 10:37:53;;;;;;;2.25;2.05;;;;;;;22.30;67.38;98155.84;1712555;75;679240;-74
2023/05/25 10:40:24;;;;;;;2.75;2.20;;;;;;;22.63;66.90;98156.28;1703209;75;757846;-75
2023/05/25 10:42:58;;;;;;;2.40;1.95;;;;;;;22.94;66.58;98151.66;1696475;75;1984350;-74
2023/05/25 10:45:28;;;;;;;3.80;2.65;;;;;;;22.89;68.37;98144.19;1702653;75;758794;-75
2023/05/25 10:48:00;;;;;;;3.00;2.70;;;;;;;22.60;65.92;98151.06;1711091;75;674225;-75
2023/05/25 10:50:37;;;;;;;3.05;2.65;;;;;;;22.67;65.42;98144.78;1701312;75;794787;-74
2023/05/25 10:53:11;;;;;;;2.20;2.00;;;;;;;23.37;66.85;98150.22;1605882;75;6970776;-72
2023/05/25 10:56:03;;;;;;;3.05;2.35;;;;;;;23.46;65.87;98148.25;1710763;75;678447;-74
2023/05/25 10:58:36;;;;;;;3.80;2.80;;;;;;;23.43;66.93;98144.50;1700178;75;825997;-74
2023/05/25 11:01:11;;;;;;;3.30;3.00;;;;;;;22.38;66.41;98141.97;1697496;75;1799475;-75
2023/05/25 11:03:57;;;;;;;5.40;3.50;;;;;;;22.83;65.77;98134.47;1699050;75;956314;-74
2023/05/25 11:07:12;;;;;;;4.20;2.80;;;;;;;23.06;66.68;98140.97;1702665;75;681874;-77
2023/05/25 11:09:45;;;;;;;5.75;3.00;;;;;;;22.65;64.81;98139.75;1702582;75;752156;-74
2023/05/25 11:12:23;;;;;;;2.80;2.40;;;;;;;22.94;64.71;98137.69;1699950;75;1673878;-77
2023/05/25 11:15:18;;;;;;;3.10;2.30;;;;;;;23.35;63.46;98132.53;1686795;75;1989908;-75
2023/05/25 11:18:04;;;;;;;4.60;3.20;;;;;;;22.83;68.82;98128.91;1703419;75;682972;-75
2023/05/25 11:20:36;;;;;;;2.90;2.50;;;;;;;24.03;64.17;98134.06;1703339;75;679902;-75
2023/05/25 11:23:28;;;;;;;5.85;2.75;;;;;;;23.33;63.96;98127.50;1709036;75;904310;-74
2023/05/25 11:26:08;;;;;;;3.30;2.40;;;;;;;23.62;65.87;98127.44;1701767;75;741176;-76
2023/05/25 11:28:49;;;;;;;2.65;2.20;;;;;;;23.26;63.93;98127.47;1703596;75;679411;-73
2023/05/25 11:31:25;;;;;;;2.80;2.40;;;;;;;23.31;65.11;98118.94;1685678;75;2863655;-76
2023/05/25 11:34:03;;;;;;;3.60;3.00;;;;;;;22.97;64.52;98117.06;1652881;75;4917041;-75
2023/05/25 11:36:35;;;;;;;4.70;2.75;;;;;;;23.77;67.54;98116.31;1703161;75;960039;-74
2023/05/25 11:39:07;;;;;;;4.10;2.75;;;;;;;23.95;62.23;98108.88;1711529;75;692529;-75